Aeroporto :
LOGIN :

Iscrizione | Disclaimer

   EN    FR    IT 

 










Sommario :    VFR   VFR Marginale   IFR   IFR Intensivo   IFR Molto Intensivo
Visibilità : 
Base nubi : 
>= 8 km
>= 3000ft
5 / 8 km
1000 / 3000 ft
1500m / 5 km
500 / 1000 ft
800 / 1500m
200 / 500 ft
< 800m
< 200 ft
Simboli :   Temporali  Nebbia  Neve Forte  Precipitazioni Forti  Vento > 20 kt
SIGMETs :   Varie  Temporali  Ghiacco  Turbolenza  Onda orograficha  Ceneri Vulcaniche






- Altitudine del aeroporto : 233 ft
- Codice IATA : REU


LERS - Reus Tarragona

ULTIMO METAR :
  • 240530Z 25011KT CAVOK 07/00 Q1016

METARs OBSOLETI :
  • 240500Z 29007KT 260V330 CAVOK 07/M00 Q1016
  • 240430Z AUTO 27009KT CAVOK 08/00 Q1016
  • 240400Z AUTO 26005KT 230V300 CAVOK 08/M00 Q1016
  • 240330Z AUTO 27010KT CAVOK 07/M00 Q1016
  • 240300Z AUTO 28008KT CAVOK 08/M01 Q1016
  • 240230Z AUTO 27011KT CAVOK 08/M01 Q1016
  • 240200Z AUTO 27009KT 250V310 CAVOK 08/M03 Q1016
  • 240130Z AUTO 25006KT CAVOK 07/M04 Q1016
  • 240100Z AUTO 00000KT CAVOK 04/M02 Q1016

TAF TAF LERS
Valido dal 24 a 03 ore il 25 a 03 ore UTC


240200Z 2403/2503 VRB05KT 9999 FEW030 TX23/2413Z TN05/2406Z
TEMPO 2403/2417 28013KT
TEMPO 2416/2421 21012KT



MetMap, La meteo Aeronautica in un colpo d'occhio ! - Copyright ORBIFLY Dicembre 2007 - Disclaimer

ORBIFLY MET'MAP TEAM :

Programmazione e sviluppo : Alexandra Zaïnal
Concezione : Baudouin d'Aumeries
Supporto tecnico e logistico : Manuel Goepfert
Aiuto : Marc-Olivier Méhu
Aiuto per la traduzione : Arnaldo La Scala




FONTI E CREDITI :

   NOAA